Impacts METAR Board INFO
IDs:

KMEM - Memphis Intl, TN, US

Updated at: 0717 UTC 13 Dec 2017
Potential Impact None Slight Moderate High
Time12/19Z 12/20Z 12/21Z 12/22Z 12/23Z 13/00Z 13/01Z 13/02Z 13/03Z 13/04Z 13/05Z 13/06Z 13/07Z
VIS10 10 10 10 10 10 10 10 10 10 10 10 10
CIG-- -- -- -- -- -- -- -- -- -- -- -- --
CoverCLRCLRFEWFEWFEWCLRCLRCLRCLRCLRCLRCLRCLR
FltCatVFRVFRVFRVFRVFRVFRVFRVFRVFRVFRVFRVFRVFR
WX--------------------------
WDir33033034033030032029000021000
WSpd10 9 10 10 11 7 4 0 0 0 3 0 0
WGst-- 16 -- -- -- -- -- -- -- -- -- -- --
Raw hourly METARs
KMEM 121854Z 33010KT 10SM CLR 09/M03 A3018 RMK AO2 SLP219 T00941028
KMEM 121954Z 33009G16KT 10SM CLR 09/M04 A3016 RMK AO2 SLP214 T00891039
KMEM 122054Z 34010KT 10SM FEW250 09/M05 A3017 RMK AO2 SLP217 T00891050 55008
KMEM 122154Z 33010KT 10SM FEW250 08/M05 A3016 RMK AO2 SLP213 T00781050
KMEM 122254Z 30011KT 10SM FEW250 06/M06 A3015 RMK AO2 SLP211 T00561056
KMEM 122354Z 32007KT 10SM CLR 04/M06 A3016 RMK AO2 SLP215 T00391061 10094 20039 55003
KMEM 130054Z 29004KT 10SM CLR 03/M06 A3017 RMK AO2 SLP216 T00331061
KMEM 130154Z 00000KT 10SM CLR 04/M07 A3017 RMK AO2 SLP216 T00391067
KMEM 130254Z 00000KT 10SM CLR 02/M06 A3016 RMK AO2 SLP213 T00221056 58001
KMEM 130354Z 00000KT 10SM CLR 02/M06 A3015 RMK AO2 SLP211 T00171061
KMEM 130454Z 21003KT 10SM CLR M01/M05 A3014 RMK AO2 SLP208 T10111050
KMEM 130554Z 00000KT 10SM CLR 01/M06 A3014 RMK AO2 SLP206 T00061061 10044 21017 401061017 56007
KMEM 130654Z 00000KT 10SM CLR 01/M06 A3012 RMK AO2 SLP200 T00061056